sensor_id;sensor_type;location;lat;lon;timestamp;P1;durP1;ratioP1;P2;durP2;ratioP2
56770;SDS011;42641;59.794;17.616;2023-11-18T00:01:58;4.17;;;3.13;;
56770;SDS011;42641;59.794;17.616;2023-11-18T00:04:25;3.70;;;3.00;;
56770;SDS011;42641;59.794;17.616;2023-11-18T00:06:51;4.63;;;3.27;;
56770;SDS011;42641;59.794;17.616;2023-11-18T00:09:18;5.50;;;3.97;;
56770;SDS011;42641;59.794;17.616;2023-11-18T00:11:45;5.67;;;3.90;;
56770;SDS011;42641;59.794;17.616;2023-11-18T00:14:12;6.07;;;4.43;;
56770;SDS011;42641;59.794;17.616;2023-11-18T00:16:38;5.77;;;3.87;;
56770;SDS011;42641;59.794;17.616;2023-11-18T00:19:05;4.97;;;3.63;;
56770;SDS011;42641;59.794;17.616;2023-11-18T00:21:35;5.50;;;3.37;;
56770;SDS011;42641;59.794;17.616;2023-11-18T00:24:02;3.73;;;3.03;;
56770;SDS011;42641;59.794;17.616;2023-11-18T00:26:28;3.77;;;2.90;;
56770;SDS011;42641;59.794;17.616;2023-11-18T00:28:58;4.67;;;2.90;;
56770;SDS011;42641;59.794;17.616;2023-11-18T00:31:26;4.40;;;2.87;;
56770;SDS011;42641;59.794;17.616;2023-11-18T00:33:54;3.63;;;2.57;;
56770;SDS011;42641;59.794;17.616;2023-11-18T00:36:20;3.57;;;2.93;;
56770;SDS011;42641;59.794;17.616;2023-11-18T00:38:48;3.53;;;2.90;;
56770;SDS011;42641;59.794;17.616;2023-11-18T00:41:15;3.03;;;2.60;;
56770;SDS011;42641;59.794;17.616;2023-11-18T00:43:43;3.80;;;2.77;;
56770;SDS011;42641;59.794;17.616;2023-11-18T00:46:10;4.40;;;2.60;;
56770;SDS011;42641;59.794;17.616;2023-11-18T00:48:37;2.80;;;2.33;;
56770;SDS011;42641;59.794;17.616;2023-11-18T00:51:05;3.17;;;2.80;;
56770;SDS011;42641;59.794;17.616;2023-11-18T00:53:32;2.90;;;2.60;;
56770;SDS011;42641;59.794;17.616;2023-11-18T00:56:01;4.17;;;2.50;;
56770;SDS011;42641;59.794;17.616;2023-11-18T00:58:27;3.17;;;2.53;;
56770;SDS011;42641;59.794;17.616;2023-11-18T01:00:55;2.47;;;2.20;;
56770;SDS011;42641;59.794;17.616;2023-11-18T01:03:21;3.10;;;2.50;;
56770;SDS011;42641;59.794;17.616;2023-11-18T01:05:47;2.27;;;2.07;;
56770;SDS011;42641;59.794;17.616;2023-11-18T01:08:15;3.67;;;2.37;;
56770;SDS011;42641;59.794;17.616;2023-11-18T01:10:41;3.03;;;2.10;;
56770;SDS011;42641;59.794;17.616;2023-11-18T01:13:08;2.93;;;1.97;;
56770;SDS011;42641;59.794;17.616;2023-11-18T01:15:35;3.67;;;2.80;;
56770;SDS011;42641;59.794;17.616;2023-11-18T01:18:01;2.97;;;2.37;;
56770;SDS011;42641;59.794;17.616;2023-11-18T01:20:28;2.90;;;2.23;;
56770;SDS011;42641;59.794;17.616;2023-11-18T01:22:54;3.23;;;2.50;;
56770;SDS011;42641;59.794;17.616;2023-11-18T01:25:20;2.60;;;2.40;;
56770;SDS011;42641;59.794;17.616;2023-11-18T01:27:47;2.80;;;2.00;;
56770;SDS011;42641;59.794;17.616;2023-11-18T01:30:14;3.77;;;2.20;;
56770;SDS011;42641;59.794;17.616;2023-11-18T01:32:41;3.10;;;2.37;;
56770;SDS011;42641;59.794;17.616;2023-11-18T01:35:08;2.53;;;2.13;;
56770;SDS011;42641;59.794;17.616;2023-11-18T01:37:36;2.50;;;2.27;;
56770;SDS011;42641;59.794;17.616;2023-11-18T01:40:03;2.40;;;2.00;;
56770;SDS011;42641;59.794;17.616;2023-11-18T01:42:33;2.83;;;2.07;;
56770;SDS011;42641;59.794;17.616;2023-11-18T01:45:00;4.00;;;2.20;;
56770;SDS011;42641;59.794;17.616;2023-11-18T01:47:30;5.07;;;2.13;;
56770;SDS011;42641;59.794;17.616;2023-11-18T01:49:59;2.77;;;2.20;;
56770;SDS011;42641;59.794;17.616;2023-11-18T01:52:27;3.07;;;2.50;;
56770;SDS011;42641;59.794;17.616;2023-11-18T01:54:55;3.13;;;2.40;;
56770;SDS011;42641;59.794;17.616;2023-11-18T01:57:22;2.07;;;1.87;;
56770;SDS011;42641;59.794;17.616;2023-11-18T01:59:49;2.70;;;2.23;;
56770;SDS011;42641;59.794;17.616;2023-11-18T02:02:15;2.73;;;2.17;;
56770;SDS011;42641;59.794;17.616;2023-11-18T02:04:42;3.07;;;2.40;;
56770;SDS011;42641;59.794;17.616;2023-11-18T02:07:10;3.60;;;2.70;;
56770;SDS011;42641;59.794;17.616;2023-11-18T02:09:41;3.40;;;2.40;;
56770;SDS011;42641;59.794;17.616;2023-11-18T02:12:16;2.87;;;2.17;;
56770;SDS011;42641;59.794;17.616;2023-11-18T02:14:49;4.37;;;2.30;;
56770;SDS011;42641;59.794;17.616;2023-11-18T02:17:18;3.33;;;2.50;;
56770;SDS011;42641;59.794;17.616;2023-11-18T02:19:46;3.97;;;2.57;;
56770;SDS011;42641;59.794;17.616;2023-11-18T02:22:12;2.77;;;2.30;;
56770;SDS011;42641;59.794;17.616;2023-11-18T02:24:39;4.20;;;2.60;;
56770;SDS011;42641;59.794;17.616;2023-11-18T02:27:07;4.73;;;2.60;;
56770;SDS011;42641;59.794;17.616;2023-11-18T02:29:37;3.33;;;2.93;;
56770;SDS011;42641;59.794;17.616;2023-11-18T02:35:00;5.00;;;3.60;;
56770;SDS011;42641;59.794;17.616;2023-11-18T02:37:37;4.67;;;3.30;;
56770;SDS011;42641;59.794;17.616;2023-11-18T02:40:11;5.47;;;3.23;;
56770;SDS011;42641;59.794;17.616;2023-11-18T02:42:44;3.80;;;3.20;;
56770;SDS011;42641;59.794;17.616;2023-11-18T02:45:15;4.50;;;3.10;;
56770;SDS011;42641;59.794;17.616;2023-11-18T02:47:44;4.10;;;3.10;;
56770;SDS011;42641;59.794;17.616;2023-11-18T02:50:10;3.07;;;2.60;;
56770;SDS011;42641;59.794;17.616;2023-11-18T02:52:38;3.70;;;2.90;;
56770;SDS011;42641;59.794;17.616;2023-11-18T02:55:05;6.83;;;4.17;;
56770;SDS011;42641;59.794;17.616;2023-11-18T02:57:37;6.73;;;4.00;;
56770;SDS011;42641;59.794;17.616;2023-11-18T03:00:05;5.33;;;3.83;;
56770;SDS011;42641;59.794;17.616;2023-11-18T03:02:37;5.97;;;4.43;;
56770;SDS011;42641;59.794;17.616;2023-11-18T03:05:08;7.50;;;4.43;;
56770;SDS011;42641;59.794;17.616;2023-11-18T03:07:37;5.70;;;4.00;;
56770;SDS011;42641;59.794;17.616;2023-11-18T03:10:08;8.30;;;5.23;;
56770;SDS011;42641;59.794;17.616;2023-11-18T03:12:53;8.20;;;4.80;;
56770;SDS011;42641;59.794;17.616;2023-11-18T03:15:20;7.90;;;4.70;;
56770;SDS011;42641;59.794;17.616;2023-11-18T03:17:49;9.13;;;4.57;;
56770;SDS011;42641;59.794;17.616;2023-11-18T03:20:16;5.97;;;4.17;;
56770;SDS011;42641;59.794;17.616;2023-11-18T03:22:45;7.67;;;4.80;;
56770;SDS011;42641;59.794;17.616;2023-11-18T03:25:15;7.40;;;4.83;;
56770;SDS011;42641;59.794;17.616;2023-11-18T03:27:43;8.33;;;4.73;;
56770;SDS011;42641;59.794;17.616;2023-11-18T03:30:12;7.40;;;4.43;;
56770;SDS011;42641;59.794;17.616;2023-11-18T03:32:39;7.40;;;4.97;;
56770;SDS011;42641;59.794;17.616;2023-11-18T03:35:07;7.73;;;4.47;;
56770;SDS011;42641;59.794;17.616;2023-11-18T03:37:36;6.33;;;3.90;;
56770;SDS011;42641;59.794;17.616;2023-11-18T03:40:10;5.03;;;2.93;;
56770;SDS011;42641;59.794;17.616;2023-11-18T03:42:38;3.27;;;2.97;;
56770;SDS011;42641;59.794;17.616;2023-11-18T03:45:06;5.83;;;3.20;;
56770;SDS011;42641;59.794;17.616;2023-11-18T03:47:32;4.43;;;3.30;;
56770;SDS011;42641;59.794;17.616;2023-11-18T03:50:00;5.43;;;3.20;;
56770;SDS011;42641;59.794;17.616;2023-11-18T03:52:28;3.60;;;3.00;;
56770;SDS011;42641;59.794;17.616;2023-11-18T03:54:54;5.60;;;3.60;;
56770;SDS011;42641;59.794;17.616;2023-11-18T03:57:21;6.90;;;3.57;;
56770;SDS011;42641;59.794;17.616;2023-11-18T03:59:48;7.47;;;3.57;;
56770;SDS011;42641;59.794;17.616;2023-11-18T04:02:14;4.43;;;3.47;;
56770;SDS011;42641;59.794;17.616;2023-11-18T04:04:40;4.73;;;3.60;;
56770;SDS011;42641;59.794;17.616;2023-11-18T04:07:07;4.50;;;3.30;;
56770;SDS011;42641;59.794;17.616;2023-11-18T04:09:33;5.97;;;3.30;;
56770;SDS011;42641;59.794;17.616;2023-11-18T04:12:00;4.83;;;2.90;;
56770;SDS011;42641;59.794;17.616;2023-11-18T04:14:26;6.03;;;3.70;;
56770;SDS011;42641;59.794;17.616;2023-11-18T04:16:53;4.87;;;3.53;;
56770;SDS011;42641;59.794;17.616;2023-11-18T04:19:20;5.47;;;3.03;;
56770;SDS011;42641;59.794;17.616;2023-11-18T04:21:47;3.87;;;2.97;;
56770;SDS011;42641;59.794;17.616;2023-11-18T04:24:15;4.10;;;2.77;;
56770;SDS011;42641;59.794;17.616;2023-11-18T04:26:41;5.00;;;2.83;;
56770;SDS011;42641;59.794;17.616;2023-11-18T04:29:08;4.07;;;2.80;;
56770;SDS011;42641;59.794;17.616;2023-11-18T04:31:34;5.80;;;3.03;;
56770;SDS011;42641;59.794;17.616;2023-11-18T04:34:03;5.33;;;2.90;;
56770;SDS011;42641;59.794;17.616;2023-11-18T04:36:32;4.23;;;2.70;;
56770;SDS011;42641;59.794;17.616;2023-11-18T04:38:59;4.60;;;2.70;;
56770;SDS011;42641;59.794;17.616;2023-11-18T04:41:25;4.10;;;2.57;;
56770;SDS011;42641;59.794;17.616;2023-11-18T04:43:52;3.30;;;2.47;;
56770;SDS011;42641;59.794;17.616;2023-11-18T04:46:19;2.83;;;2.43;;
56770;SDS011;42641;59.794;17.616;2023-11-18T04:48:45;4.13;;;2.17;;
56770;SDS011;42641;59.794;17.616;2023-11-18T04:51:12;3.33;;;2.43;;
56770;SDS011;42641;59.794;17.616;2023-11-18T04:53:38;2.17;;;1.93;;
56770;SDS011;42641;59.794;17.616;2023-11-18T04:56:05;3.47;;;2.50;;
56770;SDS011;42641;59.794;17.616;2023-11-18T04:58:39;4.00;;;2.40;;
56770;SDS011;42641;59.794;17.616;2023-11-18T05:01:05;3.20;;;1.87;;
56770;SDS011;42641;59.794;17.616;2023-11-18T05:03:32;4.80;;;2.10;;
56770;SDS011;42641;59.794;17.616;2023-11-18T05:05:58;2.83;;;2.10;;
56770;SDS011;42641;59.794;17.616;2023-11-18T05:08:25;3.43;;;2.40;;
56770;SDS011;42641;59.794;17.616;2023-11-18T05:10:51;2.67;;;1.97;;
56770;SDS011;42641;59.794;17.616;2023-11-18T05:13:18;3.37;;;2.30;;
56770;SDS011;42641;59.794;17.616;2023-11-18T05:15:45;2.27;;;1.80;;
56770;SDS011;42641;59.794;17.616;2023-11-18T05:18:12;2.43;;;2.03;;
56770;SDS011;42641;59.794;17.616;2023-11-18T05:20:43;2.23;;;1.57;;
56770;SDS011;42641;59.794;17.616;2023-11-18T05:23:10;1.40;;;1.30;;
56770;SDS011;42641;59.794;17.616;2023-11-18T05:25:41;1.63;;;1.37;;
56770;SDS011;42641;59.794;17.616;2023-11-18T05:28:11;1.13;;;1.03;;
56770;SDS011;42641;59.794;17.616;2023-11-18T05:30:38;0.90;;;0.90;;
56770;SDS011;42641;59.794;17.616;2023-11-18T05:33:07;1.43;;;1.30;;
56770;SDS011;42641;59.794;17.616;2023-11-18T05:35:34;1.50;;;1.20;;
56770;SDS011;42641;59.794;17.616;2023-11-18T05:38:01;1.23;;;1.10;;
56770;SDS011;42641;59.794;17.616;2023-11-18T05:40:31;1.77;;;1.67;;
56770;SDS011;42641;59.794;17.616;2023-11-18T05:42:58;1.20;;;1.10;;
56770;SDS011;42641;59.794;17.616;2023-11-18T05:45:24;1.40;;;1.30;;
56770;SDS011;42641;59.794;17.616;2023-11-18T05:47:54;1.37;;;0.90;;
56770;SDS011;42641;59.794;17.616;2023-11-18T05:50:21;0.90;;;0.90;;
56770;SDS011;42641;59.794;17.616;2023-11-18T05:52:50;1.57;;;1.10;;
56770;SDS011;42641;59.794;17.616;2023-11-18T05:55:17;1.00;;;1.00;;
56770;SDS011;42641;59.794;17.616;2023-11-18T05:57:43;1.10;;;1.00;;
56770;SDS011;42641;59.794;17.616;2023-11-18T06:00:14;1.20;;;1.10;;
56770;SDS011;42641;59.794;17.616;2023-11-18T06:02:41;4.53;;;1.27;;
56770;SDS011;42641;59.794;17.616;2023-11-18T06:05:08;1.30;;;1.20;;
56770;SDS011;42641;59.794;17.616;2023-11-18T06:07:35;1.27;;;1.17;;
56770;SDS011;42641;59.794;17.616;2023-11-18T06:10:02;2.07;;;1.60;;
56770;SDS011;42641;59.794;17.616;2023-11-18T06:12:31;1.40;;;1.30;;
56770;SDS011;42641;59.794;17.616;2023-11-18T06:14:58;1.30;;;1.20;;
56770;SDS011;42641;59.794;17.616;2023-11-18T06:17:25;2.10;;;1.33;;
56770;SDS011;42641;59.794;17.616;2023-11-18T06:19:53;1.40;;;1.30;;
56770;SDS011;42641;59.794;17.616;2023-11-18T06:22:20;1.40;;;1.30;;
56770;SDS011;42641;59.794;17.616;2023-11-18T06:24:46;1.30;;;1.20;;
56770;SDS011;42641;59.794;17.616;2023-11-18T06:27:13;1.40;;;1.23;;
56770;SDS011;42641;59.794;17.616;2023-11-18T06:29:39;4.83;;;1.30;;
56770;SDS011;42641;59.794;17.616;2023-11-18T06:32:06;1.17;;;1.00;;
56770;SDS011;42641;59.794;17.616;2023-11-18T06:34:33;1.47;;;1.20;;
56770;SDS011;42641;59.794;17.616;2023-11-18T06:37:00;1.73;;;1.30;;
56770;SDS011;42641;59.794;17.616;2023-11-18T06:39:27;1.27;;;1.17;;
56770;SDS011;42641;59.794;17.616;2023-11-18T06:41:56;1.40;;;1.30;;
56770;SDS011;42641;59.794;17.616;2023-11-18T06:44:24;1.43;;;1.33;;
56770;SDS011;42641;59.794;17.616;2023-11-18T06:46:51;1.50;;;1.40;;
56770;SDS011;42641;59.794;17.616;2023-11-18T06:49:17;1.23;;;1.20;;
56770;SDS011;42641;59.794;17.616;2023-11-18T06:51:45;1.50;;;1.40;;
56770;SDS011;42641;59.794;17.616;2023-11-18T06:54:11;1.20;;;1.10;;
56770;SDS011;42641;59.794;17.616;2023-11-18T06:56:40;1.30;;;1.20;;
56770;SDS011;42641;59.794;17.616;2023-11-18T06:59:11;1.40;;;1.20;;
56770;SDS011;42641;59.794;17.616;2023-11-18T07:01:38;1.20;;;1.10;;
56770;SDS011;42641;59.794;17.616;2023-11-18T07:04:09;1.60;;;1.10;;
56770;SDS011;42641;59.794;17.616;2023-11-18T07:06:36;1.63;;;1.40;;
56770;SDS011;42641;59.794;17.616;2023-11-18T07:09:08;1.50;;;1.37;;
56770;SDS011;42641;59.794;17.616;2023-11-18T07:11:44;1.43;;;1.33;;
56770;SDS011;42641;59.794;17.616;2023-11-18T07:14:12;2.43;;;2.23;;
56770;SDS011;42641;59.794;17.616;2023-11-18T07:16:41;1.10;;;1.10;;
56770;SDS011;42641;59.794;17.616;2023-11-18T07:19:08;1.30;;;1.20;;
56770;SDS011;42641;59.794;17.616;2023-11-18T07:21:46;1.43;;;1.33;;
56770;SDS011;42641;59.794;17.616;2023-11-18T07:24:12;1.30;;;1.20;;
56770;SDS011;42641;59.794;17.616;2023-11-18T07:26:39;1.33;;;1.23;;
56770;SDS011;42641;59.794;17.616;2023-11-18T07:29:05;1.77;;;1.57;;
56770;SDS011;42641;59.794;17.616;2023-11-18T07:31:35;1.47;;;1.20;;
56770;SDS011;42641;59.794;17.616;2023-11-18T07:34:04;1.43;;;1.30;;
56770;SDS011;42641;59.794;17.616;2023-11-18T07:36:33;1.70;;;1.60;;
56770;SDS011;42641;59.794;17.616;2023-11-18T07:39:00;3.43;;;3.13;;
56770;SDS011;42641;59.794;17.616;2023-11-18T07:41:28;1.50;;;1.40;;
56770;SDS011;42641;59.794;17.616;2023-11-18T07:43:57;1.50;;;1.40;;
56770;SDS011;42641;59.794;17.616;2023-11-18T07:46:24;1.13;;;1.13;;
56770;SDS011;42641;59.794;17.616;2023-11-18T07:48:52;1.47;;;1.37;;
56770;SDS011;42641;59.794;17.616;2023-11-18T07:51:19;2.80;;;2.60;;
56770;SDS011;42641;59.794;17.616;2023-11-18T07:53:50;2.97;;;2.77;;
56770;SDS011;42641;59.794;17.616;2023-11-18T07:56:17;1.57;;;1.47;;
56770;SDS011;42641;59.794;17.616;2023-11-18T07:58:43;1.93;;;1.30;;
56770;SDS011;42641;59.794;17.616;2023-11-18T08:01:13;1.60;;;1.50;;
56770;SDS011;42641;59.794;17.616;2023-11-18T08:03:42;1.50;;;1.40;;
56770;SDS011;42641;59.794;17.616;2023-11-18T08:06:10;1.50;;;1.40;;
56770;SDS011;42641;59.794;17.616;2023-11-18T08:08:38;1.53;;;1.43;;
56770;SDS011;42641;59.794;17.616;2023-11-18T08:11:04;1.37;;;1.27;;
56770;SDS011;42641;59.794;17.616;2023-11-18T08:13:32;1.40;;;1.30;;
56770;SDS011;42641;59.794;17.616;2023-11-18T08:15:58;1.60;;;1.50;;
56770;SDS011;42641;59.794;17.616;2023-11-18T08:18:25;1.40;;;1.30;;
56770;SDS011;42641;59.794;17.616;2023-11-18T08:20:53;1.47;;;1.30;;
56770;SDS011;42641;59.794;17.616;2023-11-18T08:23:19;1.70;;;1.60;;
56770;SDS011;42641;59.794;17.616;2023-11-18T08:25:46;2.10;;;1.90;;
56770;SDS011;42641;59.794;17.616;2023-11-18T08:37:08;1.50;;;1.30;;
56770;SDS011;42641;59.794;17.616;2023-11-18T09:10:05;1.53;;;1.43;;
56770;SDS011;42641;59.794;17.616;2023-11-18T09:18:45;1.40;;;1.30;;
56770;SDS011;42641;59.794;17.616;2023-11-18T09:27:18;1.70;;;1.60;;
56770;SDS011;42641;59.794;17.616;2023-11-18T09:29:45;1.57;;;1.47;;
56770;SDS011;42641;59.794;17.616;2023-11-18T09:38:05;1.37;;;1.27;;
56770;SDS011;42641;59.794;17.616;2023-11-18T09:40:31;3.77;;;1.10;;
56770;SDS011;42641;59.794;17.616;2023-11-18T09:43:03;1.83;;;1.57;;
56770;SDS011;42641;59.794;17.616;2023-11-18T09:45:35;1.63;;;1.33;;
56770;SDS011;42641;59.794;17.616;2023-11-18T09:48:01;1.33;;;1.23;;
56770;SDS011;42641;59.794;17.616;2023-11-18T09:50:32;1.53;;;1.43;;
56770;SDS011;42641;59.794;17.616;2023-11-18T09:53:06;1.50;;;1.40;;
56770;SDS011;42641;59.794;17.616;2023-11-18T09:55:38;3.53;;;1.30;;
56770;SDS011;42641;59.794;17.616;2023-11-18T09:58:15;2.07;;;1.57;;
56770;SDS011;42641;59.794;17.616;2023-11-18T10:00:45;1.60;;;1.50;;
56770;SDS011;42641;59.794;17.616;2023-11-18T10:03:16;1.40;;;1.30;;
56770;SDS011;42641;59.794;17.616;2023-11-18T10:05:43;1.83;;;1.60;;
56770;SDS011;42641;59.794;17.616;2023-11-18T10:08:10;1.93;;;1.70;;
56770;SDS011;42641;59.794;17.616;2023-11-18T10:10:37;1.67;;;1.57;;
56770;SDS011;42641;59.794;17.616;2023-11-18T10:13:03;1.70;;;1.60;;
56770;SDS011;42641;59.794;17.616;2023-11-18T10:15:34;1.50;;;1.33;;
56770;SDS011;42641;59.794;17.616;2023-11-18T10:18:02;1.93;;;1.73;;
56770;SDS011;42641;59.794;17.616;2023-11-18T10:23:14;1.63;;;1.53;;
56770;SDS011;42641;59.794;17.616;2023-11-18T10:25:56;1.90;;;1.70;;
56770;SDS011;42641;59.794;17.616;2023-11-18T10:28:24;1.57;;;1.47;;
56770;SDS011;42641;59.794;17.616;2023-11-18T10:30:55;1.73;;;1.63;;
56770;SDS011;42641;59.794;17.616;2023-11-18T10:33:32;2.00;;;1.90;;
56770;SDS011;42641;59.794;17.616;2023-11-18T10:36:03;2.30;;;1.87;;
56770;SDS011;42641;59.794;17.616;2023-11-18T10:38:33;3.77;;;1.93;;
56770;SDS011;42641;59.794;17.616;2023-11-18T10:41:09;3.00;;;2.00;;
56770;SDS011;42641;59.794;17.616;2023-11-18T10:43:37;2.60;;;1.90;;
56770;SDS011;42641;59.794;17.616;2023-11-18T10:46:06;2.23;;;1.67;;
56770;SDS011;42641;59.794;17.616;2023-11-18T10:48:45;1.57;;;1.47;;
56770;SDS011;42641;59.794;17.616;2023-11-18T11:41:12;2.33;;;2.00;;
56770;SDS011;42641;59.794;17.616;2023-11-18T11:46:57;1.93;;;1.83;;
56770;SDS011;42641;59.794;17.616;2023-11-18T11:49:40;2.07;;;1.87;;
56770;SDS011;42641;59.794;17.616;2023-11-18T11:52:20;3.03;;;1.53;;
56770;SDS011;42641;59.794;17.616;2023-11-18T11:57:41;1.87;;;1.73;;
56770;SDS011;42641;59.794;17.616;2023-11-18T12:00:12;1.77;;;1.60;;
56770;SDS011;42641;59.794;17.616;2023-11-18T12:02:50;2.70;;;2.00;;
56770;SDS011;42641;59.794;17.616;2023-11-18T12:05:24;2.17;;;1.97;;
56770;SDS011;42641;59.794;17.616;2023-11-18T12:07:52;1.80;;;1.70;;
56770;SDS011;42641;59.794;17.616;2023-11-18T12:10:31;1.50;;;1.40;;
56770;SDS011;42641;59.794;17.616;2023-11-18T12:13:10;1.90;;;1.80;;
56770;SDS011;42641;59.794;17.616;2023-11-18T12:15:51;2.77;;;2.07;;
56770;SDS011;42641;59.794;17.616;2023-11-18T12:18:29;29.53;;;2.87;;
56770;SDS011;42641;59.794;17.616;2023-11-18T12:21:02;1.73;;;1.60;;
56770;SDS011;42641;59.794;17.616;2023-11-18T12:23:30;1.60;;;1.50;;
56770;SDS011;42641;59.794;17.616;2023-11-18T12:26:01;1.57;;;1.47;;
56770;SDS011;42641;59.794;17.616;2023-11-18T12:28:29;2.00;;;1.70;;
56770;SDS011;42641;59.794;17.616;2023-11-18T12:31:00;1.47;;;1.37;;
56770;SDS011;42641;59.794;17.616;2023-11-18T12:42:06;1.73;;;1.50;;
56770;SDS011;42641;59.794;17.616;2023-11-18T12:44:39;2.30;;;1.80;;
56770;SDS011;42641;59.794;17.616;2023-11-18T12:47:32;2.27;;;1.53;;
56770;SDS011;42641;59.794;17.616;2023-11-18T12:50:07;2.53;;;1.60;;
56770;SDS011;42641;59.794;17.616;2023-11-18T12:52:43;1.83;;;1.70;;
56770;SDS011;42641;59.794;17.616;2023-11-18T12:55:13;1.90;;;1.70;;
56770;SDS011;42641;59.794;17.616;2023-11-18T12:57:48;3.27;;;1.77;;
56770;SDS011;42641;59.794;17.616;2023-11-18T13:00:17;1.70;;;1.60;;
56770;SDS011;42641;59.794;17.616;2023-11-18T13:02:53;1.33;;;1.23;;
56770;SDS011;42641;59.794;17.616;2023-11-18T13:05:20;3.30;;;2.50;;
56770;SDS011;42641;59.794;17.616;2023-11-18T13:07:46;2.10;;;1.83;;
56770;SDS011;42641;59.794;17.616;2023-11-18T13:10:16;3.33;;;2.10;;
56770;SDS011;42641;59.794;17.616;2023-11-18T13:12:43;1.83;;;1.70;;
56770;SDS011;42641;59.794;17.616;2023-11-18T13:15:11;1.63;;;1.53;;
56770;SDS011;42641;59.794;17.616;2023-11-18T13:17:38;1.40;;;1.30;;
56770;SDS011;42641;59.794;17.616;2023-11-18T13:20:13;1.57;;;1.47;;
56770;SDS011;42641;59.794;17.616;2023-11-18T13:22:41;2.60;;;1.50;;
56770;SDS011;42641;59.794;17.616;2023-11-18T13:25:08;2.63;;;1.40;;
56770;SDS011;42641;59.794;17.616;2023-11-18T13:27:35;6.90;;;1.53;;
56770;SDS011;42641;59.794;17.616;2023-11-18T13:30:01;4.40;;;2.00;;
56770;SDS011;42641;59.794;17.616;2023-11-18T13:32:31;1.83;;;1.50;;
56770;SDS011;42641;59.794;17.616;2023-11-18T13:34:57;1.60;;;1.50;;
56770;SDS011;42641;59.794;17.616;2023-11-18T13:37:27;1.80;;;1.70;;
56770;SDS011;42641;59.794;17.616;2023-11-18T13:39:57;1.37;;;1.27;;
56770;SDS011;42641;59.794;17.616;2023-11-18T13:42:27;1.40;;;1.30;;
56770;SDS011;42641;59.794;17.616;2023-11-18T13:45:02;1.93;;;1.53;;
56770;SDS011;42641;59.794;17.616;2023-11-18T13:47:37;2.47;;;1.53;;
56770;SDS011;42641;59.794;17.616;2023-11-18T13:50:07;1.83;;;1.50;;
56770;SDS011;42641;59.794;17.616;2023-11-18T13:52:34;1.90;;;1.23;;
56770;SDS011;42641;59.794;17.616;2023-11-18T13:55:05;2.37;;;1.53;;
56770;SDS011;42641;59.794;17.616;2023-11-18T13:57:32;1.90;;;1.40;;
56770;SDS011;42641;59.794;17.616;2023-11-18T14:00:00;4.33;;;3.33;;
56770;SDS011;42641;59.794;17.616;2023-11-18T14:02:27;2.10;;;1.90;;
56770;SDS011;42641;59.794;17.616;2023-11-18T14:04:54;2.20;;;2.00;;
56770;SDS011;42641;59.794;17.616;2023-11-18T14:07:22;2.27;;;2.07;;
56770;SDS011;42641;59.794;17.616;2023-11-18T14:09:49;1.80;;;1.70;;
56770;SDS011;42641;59.794;17.616;2023-11-18T14:12:20;2.87;;;1.60;;
56770;SDS011;42641;59.794;17.616;2023-11-18T14:14:48;2.60;;;2.00;;
56770;SDS011;42641;59.794;17.616;2023-11-18T14:17:15;2.13;;;1.93;;
56770;SDS011;42641;59.794;17.616;2023-11-18T14:19:42;1.77;;;1.67;;
56770;SDS011;42641;59.794;17.616;2023-11-18T14:22:09;2.13;;;1.90;;
56770;SDS011;42641;59.794;17.616;2023-11-18T14:24:35;4.97;;;1.70;;
56770;SDS011;42641;59.794;17.616;2023-11-18T14:27:01;1.60;;;1.50;;
56770;SDS011;42641;59.794;17.616;2023-11-18T14:29:30;2.10;;;1.90;;
56770;SDS011;42641;59.794;17.616;2023-11-18T14:31:57;1.50;;;1.40;;
56770;SDS011;42641;59.794;17.616;2023-11-18T14:34:24;1.80;;;1.70;;
56770;SDS011;42641;59.794;17.616;2023-11-18T14:36:51;2.90;;;2.53;;
56770;SDS011;42641;59.794;17.616;2023-11-18T14:39:17;1.93;;;1.50;;
56770;SDS011;42641;59.794;17.616;2023-11-18T14:41:48;1.93;;;1.60;;
56770;SDS011;42641;59.794;17.616;2023-11-18T14:44:15;4.83;;;4.07;;
56770;SDS011;42641;59.794;17.616;2023-11-18T14:46:43;1.80;;;1.70;;
56770;SDS011;42641;59.794;17.616;2023-11-18T14:49:11;1.50;;;1.40;;
56770;SDS011;42641;59.794;17.616;2023-11-18T14:51:37;2.00;;;1.90;;
56770;SDS011;42641;59.794;17.616;2023-11-18T14:54:04;1.67;;;1.57;;
56770;SDS011;42641;59.794;17.616;2023-11-18T14:56:34;2.17;;;1.97;;
56770;SDS011;42641;59.794;17.616;2023-11-18T14:59:00;2.00;;;1.77;;
56770;SDS011;42641;59.794;17.616;2023-11-18T15:01:27;1.53;;;1.43;;
56770;SDS011;42641;59.794;17.616;2023-11-18T15:03:54;1.53;;;1.43;;
56770;SDS011;42641;59.794;17.616;2023-11-18T15:06:25;1.60;;;1.50;;
56770;SDS011;42641;59.794;17.616;2023-11-18T15:08:52;1.60;;;1.50;;
56770;SDS011;42641;59.794;17.616;2023-11-18T15:11:23;1.60;;;1.50;;
56770;SDS011;42641;59.794;17.616;2023-11-18T15:13:50;2.00;;;1.70;;
56770;SDS011;42641;59.794;17.616;2023-11-18T15:16:18;1.70;;;1.60;;
56770;SDS011;42641;59.794;17.616;2023-11-18T15:18:45;1.70;;;1.60;;
56770;SDS011;42641;59.794;17.616;2023-11-18T15:21:17;1.77;;;1.50;;
56770;SDS011;42641;59.794;17.616;2023-11-18T15:23:44;2.03;;;1.50;;
56770;SDS011;42641;59.794;17.616;2023-11-18T15:26:11;1.70;;;1.60;;
56770;SDS011;42641;59.794;17.616;2023-11-18T15:28:37;1.70;;;1.60;;
56770;SDS011;42641;59.794;17.616;2023-11-18T15:31:04;4.87;;;1.60;;
56770;SDS011;42641;59.794;17.616;2023-11-18T15:33:30;3.23;;;1.60;;
56770;SDS011;42641;59.794;17.616;2023-11-18T15:35:57;1.83;;;1.67;;
56770;SDS011;42641;59.794;17.616;2023-11-18T15:38:23;3.50;;;2.47;;
56770;SDS011;42641;59.794;17.616;2023-11-18T15:40:50;1.60;;;1.50;;
56770;SDS011;42641;59.794;17.616;2023-11-18T15:43:20;1.50;;;1.40;;
56770;SDS011;42641;59.794;17.616;2023-11-18T15:45:47;2.50;;;1.80;;
56770;SDS011;42641;59.794;17.616;2023-11-18T15:48:14;1.77;;;1.60;;
56770;SDS011;42641;59.794;17.616;2023-11-18T15:50:40;1.83;;;1.63;;
56770;SDS011;42641;59.794;17.616;2023-11-18T15:53:07;3.20;;;1.80;;
56770;SDS011;42641;59.794;17.616;2023-11-18T15:55:34;2.17;;;1.70;;
56770;SDS011;42641;59.794;17.616;2023-11-18T15:58:03;1.70;;;1.60;;
56770;SDS011;42641;59.794;17.616;2023-11-18T16:00:29;1.93;;;1.70;;
56770;SDS011;42641;59.794;17.616;2023-11-18T16:02:56;2.90;;;1.80;;
56770;SDS011;42641;59.794;17.616;2023-11-18T16:05:24;2.23;;;2.03;;
56770;SDS011;42641;59.794;17.616;2023-11-18T16:07:53;2.20;;;1.80;;
56770;SDS011;42641;59.794;17.616;2023-11-18T16:10:24;1.70;;;1.60;;
56770;SDS011;42641;59.794;17.616;2023-11-18T16:12:52;1.90;;;1.80;;
56770;SDS011;42641;59.794;17.616;2023-11-18T16:15:27;2.03;;;1.73;;
56770;SDS011;42641;59.794;17.616;2023-11-18T16:17:58;2.43;;;1.90;;
56770;SDS011;42641;59.794;17.616;2023-11-18T16:20:26;1.83;;;1.70;;
56770;SDS011;42641;59.794;17.616;2023-11-18T16:22:57;1.93;;;1.80;;
56770;SDS011;42641;59.794;17.616;2023-11-18T16:25:28;1.77;;;1.67;;
56770;SDS011;42641;59.794;17.616;2023-11-18T16:27:59;2.30;;;2.00;;
56770;SDS011;42641;59.794;17.616;2023-11-18T16:30:28;3.00;;;1.90;;
56770;SDS011;42641;59.794;17.616;2023-11-18T16:32:58;1.93;;;1.83;;
56770;SDS011;42641;59.794;17.616;2023-11-18T16:35:33;1.90;;;1.70;;
56770;SDS011;42641;59.794;17.616;2023-11-18T16:37:59;2.73;;;1.70;;
56770;SDS011;42641;59.794;17.616;2023-11-18T16:40:26;2.07;;;1.70;;
56770;SDS011;42641;59.794;17.616;2023-11-18T16:42:53;2.07;;;1.90;;
56770;SDS011;42641;59.794;17.616;2023-11-18T16:45:25;2.10;;;1.90;;
56770;SDS011;42641;59.794;17.616;2023-11-18T16:47:52;2.00;;;1.80;;
56770;SDS011;42641;59.794;17.616;2023-11-18T16:50:19;3.03;;;2.00;;